sensor_id;sensor_type;location;lat;lon;timestamp;P1;durP1;ratioP1;P2;durP2;ratioP2
2892;SDS011;1456;51.840;12.184;2023-06-26T07:48:50;8.27;;;8.07;;
2892;SDS011;1456;51.840;12.184;2023-06-26T07:51:16;8.50;;;8.20;;
2892;SDS011;1456;51.840;12.184;2023-06-26T07:53:42;9.53;;;9.30;;
2892;SDS011;1456;51.840;12.184;2023-06-26T07:56:08;9.43;;;9.13;;
2892;SDS011;1456;51.840;12.184;2023-06-26T07:58:34;8.80;;;8.63;;
2892;SDS011;1456;51.840;12.184;2023-06-26T08:00:59;10.40;;;10.10;;
2892;SDS011;1456;51.840;12.184;2023-06-26T08:03:25;10.73;;;10.20;;
2892;SDS011;1456;51.840;12.184;2023-06-26T08:05:51;11.60;;;11.30;;
2892;SDS011;1456;51.840;12.184;2023-06-26T08:08:17;10.40;;;10.10;;
2892;SDS011;1456;51.840;12.184;2023-06-26T08:10:42;10.00;;;9.73;;
2892;SDS011;1456;51.840;12.184;2023-06-26T08:13:08;10.30;;;9.80;;
2892;SDS011;1456;51.840;12.184;2023-06-26T08:15:34;9.47;;;9.20;;
2892;SDS011;1456;51.840;12.184;2023-06-26T08:18:00;9.80;;;9.50;;
2892;SDS011;1456;51.840;12.184;2023-06-26T08:20:25;10.77;;;10.37;;
2892;SDS011;1456;51.840;12.184;2023-06-26T08:22:51;11.73;;;11.00;;
2892;SDS011;1456;51.840;12.184;2023-06-26T08:25:19;10.50;;;10.10;;
2892;SDS011;1456;51.840;12.184;2023-06-26T08:27:45;9.70;;;9.40;;
2892;SDS011;1456;51.840;12.184;2023-06-26T08:30:11;10.40;;;10.10;;
2892;SDS011;1456;51.840;12.184;2023-06-26T08:32:38;11.37;;;10.97;;
2892;SDS011;1456;51.840;12.184;2023-06-26T08:35:04;11.00;;;10.60;;
2892;SDS011;1456;51.840;12.184;2023-06-26T08:37:31;11.90;;;11.37;;
2892;SDS011;1456;51.840;12.184;2023-06-26T08:39:57;10.97;;;10.67;;
2892;SDS011;1456;51.840;12.184;2023-06-26T08:42:24;14.07;;;13.40;;
2892;SDS011;1456;51.840;12.184;2023-06-26T08:44:50;11.70;;;11.40;;
2892;SDS011;1456;51.840;12.184;2023-06-26T08:47:16;11.27;;;10.97;;
2892;SDS011;1456;51.840;12.184;2023-06-26T08:52:16;10.97;;;10.70;;
2892;SDS011;1456;51.840;12.184;2023-06-26T08:54:48;11.07;;;10.80;;
2892;SDS011;1456;51.840;12.184;2023-06-26T08:57:21;12.17;;;11.77;;
2892;SDS011;1456;51.840;12.184;2023-06-26T08:59:48;11.73;;;11.33;;
2892;SDS011;1456;51.840;12.184;2023-06-26T09:02:14;12.37;;;11.97;;
2892;SDS011;1456;51.840;12.184;2023-06-26T09:04:40;11.40;;;11.00;;
2892;SDS011;1456;51.840;12.184;2023-06-26T09:07:06;11.30;;;11.03;;
2892;SDS011;1456;51.840;12.184;2023-06-26T09:09:32;12.20;;;11.70;;
2892;SDS011;1456;51.840;12.184;2023-06-26T09:11:58;12.83;;;12.37;;
2892;SDS011;1456;51.840;12.184;2023-06-26T09:14:24;12.60;;;12.20;;
2892;SDS011;1456;51.840;12.184;2023-06-26T09:16:50;11.97;;;11.67;;
2892;SDS011;1456;51.840;12.184;2023-06-26T09:19:16;13.27;;;12.83;;
2892;SDS011;1456;51.840;12.184;2023-06-26T09:21:43;12.40;;;12.10;;
2892;SDS011;1456;51.840;12.184;2023-06-26T09:24:10;12.90;;;12.50;;
2892;SDS011;1456;51.840;12.184;2023-06-26T09:26:39;12.53;;;12.20;;
2892;SDS011;1456;51.840;12.184;2023-06-26T09:29:06;13.60;;;13.00;;
2892;SDS011;1456;51.840;12.184;2023-06-26T09:31:33;12.40;;;12.10;;
2892;SDS011;1456;51.840;12.184;2023-06-26T09:36:30;12.93;;;12.53;;
2892;SDS011;1456;51.840;12.184;2023-06-26T09:38:58;12.37;;;11.97;;
2892;SDS011;1456;51.840;12.184;2023-06-26T09:41:29;13.60;;;13.00;;
2892;SDS011;1456;51.840;12.184;2023-06-26T09:43:57;13.00;;;12.70;;
2892;SDS011;1456;51.840;12.184;2023-06-26T09:46:29;12.93;;;12.33;;
2892;SDS011;1456;51.840;12.184;2023-06-26T09:49:06;13.10;;;12.57;;
2892;SDS011;1456;51.840;12.184;2023-06-26T09:51:33;13.23;;;12.73;;
2892;SDS011;1456;51.840;12.184;2023-06-26T09:54:01;13.40;;;12.90;;
2892;SDS011;1456;51.840;12.184;2023-06-26T09:56:28;12.90;;;12.40;;
2892;SDS011;1456;51.840;12.184;2023-06-26T09:58:55;13.00;;;12.60;;
2892;SDS011;1456;51.840;12.184;2023-06-26T10:01:24;13.37;;;12.97;;
2892;SDS011;1456;51.840;12.184;2023-06-26T10:03:50;11.90;;;11.60;;
2892;SDS011;1456;51.840;12.184;2023-06-26T10:06:22;12.70;;;12.27;;
2892;SDS011;1456;51.840;12.184;2023-06-26T10:08:54;12.90;;;12.57;;
2892;SDS011;1456;51.840;12.184;2023-06-26T10:11:21;13.77;;;13.27;;
2892;SDS011;1456;51.840;12.184;2023-06-26T10:13:49;13.10;;;12.50;;
2892;SDS011;1456;51.840;12.184;2023-06-26T10:16:23;13.03;;;12.57;;
2892;SDS011;1456;51.840;12.184;2023-06-26T10:18:53;13.20;;;12.70;;
2892;SDS011;1456;51.840;12.184;2023-06-26T10:21:22;12.90;;;12.50;;
2892;SDS011;1456;51.840;12.184;2023-06-26T10:23:49;12.67;;;12.33;;
2892;SDS011;1456;51.840;12.184;2023-06-26T10:26:16;13.50;;;13.07;;
2892;SDS011;1456;51.840;12.184;2023-06-26T10:28:45;12.33;;;12.03;;
2892;SDS011;1456;51.840;12.184;2023-06-26T10:31:14;12.63;;;12.23;;
2892;SDS011;1456;51.840;12.184;2023-06-26T10:33:41;13.13;;;12.73;;
2892;SDS011;1456;51.840;12.184;2023-06-26T10:36:17;13.47;;;13.00;;
2892;SDS011;1456;51.840;12.184;2023-06-26T10:38:48;12.67;;;12.27;;
2892;SDS011;1456;51.840;12.184;2023-06-26T10:41:21;13.47;;;12.73;;
2892;SDS011;1456;51.840;12.184;2023-06-26T10:46:28;21.07;;;20.37;;
2892;SDS011;1456;51.840;12.184;2023-06-26T10:49:00;20.80;;;20.10;;
2892;SDS011;1456;51.840;12.184;2023-06-26T10:51:33;19.73;;;19.13;;
2892;SDS011;1456;51.840;12.184;2023-06-26T10:53:58;20.27;;;19.67;;
2892;SDS011;1456;51.840;12.184;2023-06-26T10:56:43;20.03;;;19.43;;
2892;SDS011;1456;51.840;12.184;2023-06-26T10:59:20;19.50;;;18.93;;
2892;SDS011;1456;51.840;12.184;2023-06-26T11:02:03;19.93;;;19.23;;
2892;SDS011;1456;51.840;12.184;2023-06-26T11:07:25;21.87;;;21.07;;
2892;SDS011;1456;51.840;12.184;2023-06-26T11:10:01;20.63;;;20.00;;
2892;SDS011;1456;51.840;12.184;2023-06-26T11:15:10;20.67;;;20.00;;
2892;SDS011;1456;51.840;12.184;2023-06-26T11:17:40;21.93;;;21.20;;
2892;SDS011;1456;51.840;12.184;2023-06-26T11:20:08;22.23;;;21.63;;
2892;SDS011;1456;51.840;12.184;2023-06-26T11:22:40;22.17;;;21.47;;
2892;SDS011;1456;51.840;12.184;2023-06-26T11:25:10;23.83;;;23.10;;
2892;SDS011;1456;51.840;12.184;2023-06-26T11:27:42;21.57;;;20.77;;
2892;SDS011;1456;51.840;12.184;2023-06-26T11:30:09;21.33;;;20.57;;
2892;SDS011;1456;51.840;12.184;2023-06-26T11:32:37;20.40;;;19.80;;
2892;SDS011;1456;51.840;12.184;2023-06-26T11:35:04;21.37;;;20.77;;
2892;SDS011;1456;51.840;12.184;2023-06-26T11:37:32;19.47;;;18.93;;
2892;SDS011;1456;51.840;12.184;2023-06-26T11:39:58;20.30;;;19.60;;
2892;SDS011;1456;51.840;12.184;2023-06-26T11:42:24;21.33;;;20.53;;
2892;SDS011;1456;51.840;12.184;2023-06-26T11:44:54;21.80;;;21.20;;
2892;SDS011;1456;51.840;12.184;2023-06-26T11:47:20;23.30;;;22.60;;
2892;SDS011;1456;51.840;12.184;2023-06-26T11:49:48;21.03;;;20.43;;
2892;SDS011;1456;51.840;12.184;2023-06-26T11:52:14;22.87;;;22.07;;
2892;SDS011;1456;51.840;12.184;2023-06-26T11:54:42;24.00;;;23.13;;
2892;SDS011;1456;51.840;12.184;2023-06-26T11:57:13;22.33;;;21.73;;
2892;SDS011;1456;51.840;12.184;2023-06-26T11:59:41;21.00;;;20.10;;
2892;SDS011;1456;51.840;12.184;2023-06-26T12:02:07;21.40;;;20.70;;
2892;SDS011;1456;51.840;12.184;2023-06-26T12:04:38;20.80;;;20.20;;
2892;SDS011;1456;51.840;12.184;2023-06-26T12:07:06;20.93;;;20.33;;
2892;SDS011;1456;51.840;12.184;2023-06-26T12:09:43;22.37;;;21.77;;
2892;SDS011;1456;51.840;12.184;2023-06-26T12:12:11;22.83;;;22.13;;
2892;SDS011;1456;51.840;12.184;2023-06-26T12:14:40;22.20;;;21.50;;
2892;SDS011;1456;51.840;12.184;2023-06-26T12:17:08;22.40;;;21.70;;
2892;SDS011;1456;51.840;12.184;2023-06-26T12:19:36;21.87;;;21.27;;
2892;SDS011;1456;51.840;12.184;2023-06-26T12:22:09;24.17;;;23.37;;
2892;SDS011;1456;51.840;12.184;2023-06-26T12:24:46;23.73;;;22.83;;
2892;SDS011;1456;51.840;12.184;2023-06-26T12:27:21;22.10;;;21.47;;
2892;SDS011;1456;51.840;12.184;2023-06-26T12:32:24;22.63;;;21.97;;
2892;SDS011;1456;51.840;12.184;2023-06-26T12:34:53;21.63;;;20.93;;
2892;SDS011;1456;51.840;12.184;2023-06-26T12:37:21;22.80;;;22.07;;
2892;SDS011;1456;51.840;12.184;2023-06-26T12:39:50;23.33;;;22.60;;
2892;SDS011;1456;51.840;12.184;2023-06-26T12:42:27;13.77;;;13.20;;
2892;SDS011;1456;51.840;12.184;2023-06-26T12:44:53;13.40;;;12.80;;
2892;SDS011;1456;51.840;12.184;2023-06-26T12:47:25;13.93;;;13.53;;
2892;SDS011;1456;51.840;12.184;2023-06-26T12:49:52;13.20;;;12.70;;
2892;SDS011;1456;51.840;12.184;2023-06-26T12:52:20;13.13;;;12.63;;
2892;SDS011;1456;51.840;12.184;2023-06-26T12:54:47;14.20;;;13.60;;
2892;SDS011;1456;51.840;12.184;2023-06-26T12:57:19;12.70;;;12.20;;
2892;SDS011;1456;51.840;12.184;2023-06-26T12:59:46;12.07;;;11.77;;
2892;SDS011;1456;51.840;12.184;2023-06-26T13:02:12;11.77;;;11.47;;
2892;SDS011;1456;51.840;12.184;2023-06-26T13:04:40;12.27;;;11.97;;
2892;SDS011;1456;51.840;12.184;2023-06-26T13:07:07;12.77;;;12.37;;
2892;SDS011;1456;51.840;12.184;2023-06-26T13:09:33;12.27;;;11.83;;
2892;SDS011;1456;51.840;12.184;2023-06-26T13:12:00;13.10;;;12.60;;
2892;SDS011;1456;51.840;12.184;2023-06-26T13:14:27;13.67;;;13.17;;
2892;SDS011;1456;51.840;12.184;2023-06-26T13:16:53;12.53;;;11.90;;
2892;SDS011;1456;51.840;12.184;2023-06-26T13:19:19;11.93;;;11.53;;
2892;SDS011;1456;51.840;12.184;2023-06-26T13:21:45;12.07;;;11.77;;
2892;SDS011;1456;51.840;12.184;2023-06-26T13:24:11;12.23;;;11.83;;
2892;SDS011;1456;51.840;12.184;2023-06-26T13:26:38;12.30;;;12.00;;
2892;SDS011;1456;51.840;12.184;2023-06-26T13:29:03;12.40;;;11.93;;
2892;SDS011;1456;51.840;12.184;2023-06-26T13:31:32;11.10;;;10.80;;
2892;SDS011;1456;51.840;12.184;2023-06-26T13:33:58;10.90;;;10.50;;
2892;SDS011;1456;51.840;12.184;2023-06-26T13:36:24;10.87;;;10.57;;
2892;SDS011;1456;51.840;12.184;2023-06-26T13:38:49;17.80;;;16.73;;
2892;SDS011;1456;51.840;12.184;2023-06-26T13:41:21;8.03;;;7.83;;
2892;SDS011;1456;51.840;12.184;2023-06-26T13:43:47;6.53;;;6.23;;
2892;SDS011;1456;51.840;12.184;2023-06-26T13:46:14;4.57;;;4.30;;
2892;SDS011;1456;51.840;12.184;2023-06-26T13:48:42;3.37;;;3.07;;
2892;SDS011;1456;51.840;12.184;2023-06-26T13:51:07;3.00;;;3.00;;
2892;SDS011;1456;51.840;12.184;2023-06-26T13:53:34;2.97;;;2.87;;
2892;SDS011;1456;51.840;12.184;2023-06-26T13:56:01;3.03;;;2.77;;
2892;SDS011;1456;51.840;12.184;2023-06-26T13:58:26;1.80;;;1.70;;
2892;SDS011;1456;51.840;12.184;2023-06-26T14:00:54;2.77;;;2.40;;
2892;SDS011;1456;51.840;12.184;2023-06-26T14:03:20;1.93;;;1.83;;
2892;SDS011;1456;51.840;12.184;2023-06-26T14:05:47;3.13;;;2.40;;
2892;SDS011;1456;51.840;12.184;2023-06-26T14:08:13;3.57;;;3.27;;
2892;SDS011;1456;51.840;12.184;2023-06-26T14:10:39;3.73;;;3.20;;
2892;SDS011;1456;51.840;12.184;2023-06-26T14:13:04;4.23;;;2.77;;
2892;SDS011;1456;51.840;12.184;2023-06-26T14:15:32;4.97;;;4.67;;
2892;SDS011;1456;51.840;12.184;2023-06-26T14:17:58;2.97;;;2.67;;
2892;SDS011;1456;51.840;12.184;2023-06-26T14:20:25;2.77;;;2.57;;
2892;SDS011;1456;51.840;12.184;2023-06-26T14:22:50;3.37;;;2.80;;
2892;SDS011;1456;51.840;12.184;2023-06-26T14:25:18;3.23;;;3.03;;
2892;SDS011;1456;51.840;12.184;2023-06-26T14:27:45;4.43;;;3.43;;
2892;SDS011;1456;51.840;12.184;2023-06-26T14:30:11;8.10;;;4.40;;
2892;SDS011;1456;51.840;12.184;2023-06-26T14:32:37;1.77;;;1.67;;
2892;SDS011;1456;51.840;12.184;2023-06-26T14:35:04;3.57;;;1.93;;
2892;SDS011;1456;51.840;12.184;2023-06-26T14:37:30;3.40;;;3.20;;
2892;SDS011;1456;51.840;12.184;2023-06-26T14:39:56;1.80;;;1.50;;
2892;SDS011;1456;51.840;12.184;2023-06-26T14:42:22;1.50;;;1.40;;
2892;SDS011;1456;51.840;12.184;2023-06-26T14:44:48;2.33;;;1.03;;
2892;SDS011;1456;51.840;12.184;2023-06-26T14:47:16;1.30;;;1.20;;
2892;SDS011;1456;51.840;12.184;2023-06-26T14:49:45;1.67;;;1.60;;
2892;SDS011;1456;51.840;12.184;2023-06-26T14:52:11;1.93;;;1.30;;
2892;SDS011;1456;51.840;12.184;2023-06-26T14:54:37;1.40;;;1.30;;
2892;SDS011;1456;51.840;12.184;2023-06-26T14:57:05;1.93;;;0.93;;
2892;SDS011;1456;51.840;12.184;2023-06-26T14:59:31;1.60;;;1.60;;
2892;SDS011;1456;51.840;12.184;2023-06-26T15:01:58;3.23;;;3.13;;
2892;SDS011;1456;51.840;12.184;2023-06-26T15:04:23;5.33;;;5.20;;
2892;SDS011;1456;51.840;12.184;2023-06-26T15:06:49;4.90;;;4.80;;
2892;SDS011;1456;51.840;12.184;2023-06-26T15:09:15;7.03;;;6.83;;
2892;SDS011;1456;51.840;12.184;2023-06-26T15:11:41;7.67;;;7.47;;
2892;SDS011;1456;51.840;12.184;2023-06-26T15:14:08;7.80;;;7.60;;
2892;SDS011;1456;51.840;12.184;2023-06-26T15:16:33;8.07;;;7.77;;
2892;SDS011;1456;51.840;12.184;2023-06-26T15:19:01;7.03;;;6.83;;
2892;SDS011;1456;51.840;12.184;2023-06-26T15:21:27;7.70;;;7.40;;
2892;SDS011;1456;51.840;12.184;2023-06-26T15:23:52;7.13;;;6.93;;
2892;SDS011;1456;51.840;12.184;2023-06-26T15:26:18;9.23;;;8.83;;
2892;SDS011;1456;51.840;12.184;2023-06-26T15:28:44;6.83;;;6.63;;
2892;SDS011;1456;51.840;12.184;2023-06-26T15:31:10;6.87;;;6.43;;
2892;SDS011;1456;51.840;12.184;2023-06-26T15:33:36;5.33;;;5.33;;
2892;SDS011;1456;51.840;12.184;2023-06-26T15:36:02;7.53;;;7.23;;
2892;SDS011;1456;51.840;12.184;2023-06-26T15:38:28;6.87;;;6.63;;
2892;SDS011;1456;51.840;12.184;2023-06-26T15:40:54;6.50;;;6.40;;
2892;SDS011;1456;51.840;12.184;2023-06-26T15:43:22;5.67;;;5.57;;
2892;SDS011;1456;51.840;12.184;2023-06-26T15:45:47;8.03;;;7.73;;
2892;SDS011;1456;51.840;12.184;2023-06-26T15:48:14;7.03;;;6.73;;
2892;SDS011;1456;51.840;12.184;2023-06-26T15:50:40;5.53;;;5.20;;
2892;SDS011;1456;51.840;12.184;2023-06-26T15:53:05;6.20;;;5.80;;
2892;SDS011;1456;51.840;12.184;2023-06-26T15:55:32;7.37;;;7.10;;
2892;SDS011;1456;51.840;12.184;2023-06-26T15:57:58;8.03;;;7.60;;
2892;SDS011;1456;51.840;12.184;2023-06-26T16:00:26;8.23;;;7.83;;
2892;SDS011;1456;51.840;12.184;2023-06-26T16:02:53;7.90;;;7.60;;
2892;SDS011;1456;51.840;12.184;2023-06-26T16:05:19;7.47;;;7.27;;
2892;SDS011;1456;51.840;12.184;2023-06-26T16:07:45;8.20;;;8.00;;
2892;SDS011;1456;51.840;12.184;2023-06-26T16:10:12;6.80;;;6.60;;
2892;SDS011;1456;51.840;12.184;2023-06-26T16:12:39;8.87;;;8.37;;
2892;SDS011;1456;51.840;12.184;2023-06-26T16:15:05;8.10;;;7.90;;
2892;SDS011;1456;51.840;12.184;2023-06-26T16:17:32;8.40;;;8.03;;
2892;SDS011;1456;51.840;12.184;2023-06-26T16:19:58;10.10;;;9.80;;
2892;SDS011;1456;51.840;12.184;2023-06-26T16:22:25;8.33;;;8.23;;
2892;SDS011;1456;51.840;12.184;2023-06-26T16:24:51;10.57;;;9.83;;
2892;SDS011;1456;51.840;12.184;2023-06-26T16:27:16;9.13;;;8.63;;
2892;SDS011;1456;51.840;12.184;2023-06-26T16:29:42;9.53;;;9.10;;
2892;SDS011;1456;51.840;12.184;2023-06-26T16:32:08;9.63;;;9.33;;
2892;SDS011;1456;51.840;12.184;2023-06-26T16:34:33;10.73;;;10.43;;
2892;SDS011;1456;51.840;12.184;2023-06-26T16:37:00;11.10;;;10.60;;
2892;SDS011;1456;51.840;12.184;2023-06-26T16:39:32;10.40;;;10.10;;
2892;SDS011;1456;51.840;12.184;2023-06-26T16:41:59;11.50;;;11.10;;
2892;SDS011;1456;51.840;12.184;2023-06-26T16:44:24;12.63;;;12.13;;
2892;SDS011;1456;51.840;12.184;2023-06-26T16:46:57;11.30;;;11.00;;
2892;SDS011;1456;51.840;12.184;2023-06-26T16:49:25;12.87;;;12.30;;
2892;SDS011;1456;51.840;12.184;2023-06-26T16:54:22;11.90;;;11.30;;
2892;SDS011;1456;51.840;12.184;2023-06-26T16:56:49;11.10;;;10.80;;
2892;SDS011;1456;51.840;12.184;2023-06-26T16:59:16;11.80;;;11.37;;
2892;SDS011;1456;51.840;12.184;2023-06-26T17:01:43;11.67;;;10.93;;
2892;SDS011;1456;51.840;12.184;2023-06-26T17:04:08;12.40;;;12.10;;
2892;SDS011;1456;51.840;12.184;2023-06-26T17:06:34;11.10;;;10.80;;
2892;SDS011;1456;51.840;12.184;2023-06-26T17:08:59;13.13;;;12.60;;
2892;SDS011;1456;51.840;12.184;2023-06-26T17:11:27;11.67;;;11.37;;
2892;SDS011;1456;51.840;12.184;2023-06-26T17:13:53;12.03;;;11.73;;
2892;SDS011;1456;51.840;12.184;2023-06-26T17:16:20;11.17;;;10.87;;
2892;SDS011;1456;51.840;12.184;2023-06-26T17:18:46;12.60;;;12.13;;
2892;SDS011;1456;51.840;12.184;2023-06-26T17:21:12;10.60;;;10.40;;
2892;SDS011;1456;51.840;12.184;2023-06-26T17:23:38;10.47;;;10.27;;
2892;SDS011;1456;51.840;12.184;2023-06-26T17:26:04;11.40;;;10.90;;
2892;SDS011;1456;51.840;12.184;2023-06-26T17:28:30;10.00;;;9.80;;
2892;SDS011;1456;51.840;12.184;2023-06-26T17:30:57;10.27;;;10.07;;
2892;SDS011;1456;51.840;12.184;2023-06-26T17:33:24;10.23;;;10.00;;
2892;SDS011;1456;51.840;12.184;2023-06-26T17:35:51;9.90;;;9.70;;
2892;SDS011;1456;51.840;12.184;2023-06-26T17:38:17;9.73;;;9.53;;
2892;SDS011;1456;51.840;12.184;2023-06-26T17:43:14;9.40;;;9.30;;
2892;SDS011;1456;51.840;12.184;2023-06-26T17:45:42;10.87;;;10.57;;
2892;SDS011;1456;51.840;12.184;2023-06-26T17:50:44;10.00;;;9.70;;
2892;SDS011;1456;51.840;12.184;2023-06-26T17:53:13;9.60;;;9.30;;
2892;SDS011;1456;51.840;12.184;2023-06-26T17:55:39;9.60;;;9.50;;
2892;SDS011;1456;51.840;12.184;2023-06-26T17:58:07;9.20;;;9.00;;
2892;SDS011;1456;51.840;12.184;2023-06-26T18:00:33;8.40;;;8.20;;
2892;SDS011;1456;51.840;12.184;2023-06-26T18:03:01;8.77;;;8.60;;
2892;SDS011;1456;51.840;12.184;2023-06-26T18:05:29;8.80;;;8.70;;
2892;SDS011;1456;51.840;12.184;2023-06-26T18:07:56;8.37;;;8.27;;
2892;SDS011;1456;51.840;12.184;2023-06-26T18:10:21;8.97;;;8.80;;
2892;SDS011;1456;51.840;12.184;2023-06-26T18:12:49;9.50;;;9.30;;
2892;SDS011;1456;51.840;12.184;2023-06-26T18:15:19;9.80;;;9.57;;
2892;SDS011;1456;51.840;12.184;2023-06-26T18:17:45;9.10;;;9.00;;
2892;SDS011;1456;51.840;12.184;2023-06-26T18:20:11;9.50;;;9.00;;
2892;SDS011;1456;51.840;12.184;2023-06-26T18:22:36;8.70;;;8.60;;
2892;SDS011;1456;51.840;12.184;2023-06-26T18:25:02;8.77;;;8.67;;
2892;SDS011;1456;51.840;12.184;2023-06-26T18:27:32;9.33;;;8.90;;
2892;SDS011;1456;51.840;12.184;2023-06-26T18:32:35;9.00;;;8.80;;
2892;SDS011;1456;51.840;12.184;2023-06-26T18:35:00;8.77;;;8.40;;
2892;SDS011;1456;51.840;12.184;2023-06-26T18:37:28;9.80;;;9.60;;
2892;SDS011;1456;51.840;12.184;2023-06-26T18:39:54;8.67;;;8.57;;
2892;SDS011;1456;51.840;12.184;2023-06-26T18:42:20;9.47;;;8.77;;
2892;SDS011;1456;51.840;12.184;2023-06-26T18:44:46;9.90;;;9.60;;
2892;SDS011;1456;51.840;12.184;2023-06-26T18:47:13;8.60;;;8.40;;
2892;SDS011;1456;51.840;12.184;2023-06-26T18:49:41;8.43;;;8.27;;
2892;SDS011;1456;51.840;12.184;2023-06-26T18:52:07;8.70;;;8.30;;
2892;SDS011;1456;51.840;12.184;2023-06-26T18:54:35;7.60;;;7.50;;
2892;SDS011;1456;51.840;12.184;2023-06-26T18:57:01;7.77;;;7.67;;
2892;SDS011;1456;51.840;12.184;2023-06-26T18:59:29;9.27;;;9.00;;
2892;SDS011;1456;51.840;12.184;2023-06-26T19:01:55;12.20;;;7.90;;
2892;SDS011;1456;51.840;12.184;2023-06-26T19:04:22;7.83;;;7.47;;
2892;SDS011;1456;51.840;12.184;2023-06-26T19:06:49;7.20;;;7.10;;
2892;SDS011;1456;51.840;12.184;2023-06-26T19:09:23;7.20;;;7.10;;
2892;SDS011;1456;51.840;12.184;2023-06-26T19:11:52;7.40;;;7.30;;
2892;SDS011;1456;51.840;12.184;2023-06-26T19:14:18;8.10;;;7.90;;
2892;SDS011;1456;51.840;12.184;2023-06-26T19:16:46;7.73;;;7.63;;
2892;SDS011;1456;51.840;12.184;2023-06-26T19:19:13;7.17;;;7.07;;
2892;SDS011;1456;51.840;12.184;2023-06-26T19:21:40;7.60;;;7.50;;
2892;SDS011;1456;51.840;12.184;2023-06-26T19:24:15;8.00;;;7.90;;
2892;SDS011;1456;51.840;12.184;2023-06-26T19:26:41;7.20;;;7.10;;
2892;SDS011;1456;51.840;12.184;2023-06-26T19:29:06;8.30;;;8.20;;
2892;SDS011;1456;51.840;12.184;2023-06-26T19:31:32;9.10;;;8.90;;
2892;SDS011;1456;51.840;12.184;2023-06-26T19:36:26;7.60;;;7.50;;
2892;SDS011;1456;51.840;12.184;2023-06-26T19:38:52;8.30;;;8.10;;
2892;SDS011;1456;51.840;12.184;2023-06-26T19:41:20;8.27;;;8.17;;
2892;SDS011;1456;51.840;12.184;2023-06-26T19:46:16;7.60;;;7.50;;
2892;SDS011;1456;51.840;12.184;2023-06-26T19:51:19;7.80;;;7.50;;
2892;SDS011;1456;51.840;12.184;2023-06-26T19:56:19;7.40;;;7.20;;
2892;SDS011;1456;51.840;12.184;2023-06-26T19:58:47;7.40;;;7.30;;
2892;SDS011;1456;51.840;12.184;2023-06-26T20:01:22;6.63;;;6.53;;
2892;SDS011;1456;51.840;12.184;2023-06-26T20:03:51;6.93;;;6.83;;
2892;SDS011;1456;51.840;12.184;2023-06-26T20:08:48;6.00;;;6.00;;
2892;SDS011;1456;51.840;12.184;2023-06-26T20:11:16;15.90;;;15.60;;
2892;SDS011;1456;51.840;12.184;2023-06-26T20:13:45;15.73;;;15.33;;
2892;SDS011;1456;51.840;12.184;2023-06-26T20:16:11;16.10;;;15.80;;
2892;SDS011;1456;51.840;12.184;2023-06-26T20:18:38;16.17;;;15.87;;
2892;SDS011;1456;51.840;12.184;2023-06-26T20:21:06;16.23;;;15.93;;
2892;SDS011;1456;51.840;12.184;2023-06-26T20:23:33;16.60;;;16.30;;
2892;SDS011;1456;51.840;12.184;2023-06-26T20:26:01;13.93;;;13.73;;
2892;SDS011;1456;51.840;12.184;2023-06-26T20:30:56;13.30;;;13.10;;
2892;SDS011;1456;51.840;12.184;2023-06-26T20:33:32;12.60;;;12.40;;
2892;SDS011;1456;51.840;12.184;2023-06-26T20:35:57;12.10;;;11.80;;
2892;SDS011;1456;51.840;12.184;2023-06-26T20:38:26;11.20;;;11.00;;
2892;SDS011;1456;51.840;12.184;2023-06-26T20:40:52;16.60;;;15.43;;
2892;SDS011;1456;51.840;12.184;2023-06-26T20:43:17;12.10;;;11.90;;
2892;SDS011;1456;51.840;12.184;2023-06-26T20:45:44;4.63;;;4.53;;
2892;SDS011;1456;51.840;12.184;2023-06-26T20:48:12;4.40;;;4.40;;
2892;SDS011;1456;51.840;12.184;2023-06-26T20:50:38;4.93;;;4.67;;
2892;SDS011;1456;51.840;12.184;2023-06-26T20:53:06;3.50;;;3.40;;
2892;SDS011;1456;51.840;12.184;2023-06-26T20:55:32;3.70;;;3.60;;
2892;SDS011;1456;51.840;12.184;2023-06-26T20:57:58;3.73;;;3.73;;
2892;SDS011;1456;51.840;12.184;2023-06-26T21:02:58;6.83;;;3.97;;
2892;SDS011;1456;51.840;12.184;2023-06-26T21:05:26;3.27;;;3.27;;
2892;SDS011;1456;51.840;12.184;2023-06-26T21:07:52;2.90;;;2.90;;
2892;SDS011;1456;51.840;12.184;2023-06-26T21:10:20;3.23;;;3.13;;
2892;SDS011;1456;51.840;12.184;2023-06-26T21:12:47;2.67;;;2.67;;
2892;SDS011;1456;51.840;12.184;2023-06-26T21:15:13;2.90;;;2.80;;
2892;SDS011;1456;51.840;12.184;2023-06-26T21:20:11;2.73;;;2.53;;
2892;SDS011;1456;51.840;12.184;2023-06-26T21:22:37;3.17;;;2.97;;
2892;SDS011;1456;51.840;12.184;2023-06-26T21:25:03;3.40;;;3.40;;
2892;SDS011;1456;51.840;12.184;2023-06-26T21:27:30;3.30;;;3.10;;
2892;SDS011;1456;51.840;12.184;2023-06-26T21:29:56;3.17;;;3.17;;
2892;SDS011;1456;51.840;12.184;2023-06-26T21:32:22;4.37;;;4.27;;
2892;SDS011;1456;51.840;12.184;2023-06-26T21:34:49;2.80;;;2.80;;
2892;SDS011;1456;51.840;12.184;2023-06-26T21:37:15;3.40;;;3.20;;
2892;SDS011;1456;51.840;12.184;2023-06-26T21:39:41;2.40;;;2.30;;
2892;SDS011;1456;51.840;12.184;2023-06-26T21:42:07;2.40;;;2.30;;
2892;SDS011;1456;51.840;12.184;2023-06-26T21:44:34;2.30;;;2.20;;
2892;SDS011;1456;51.840;12.184;2023-06-26T21:47:01;1.50;;;1.50;;
2892;SDS011;1456;51.840;12.184;2023-06-26T21:51:56;1.43;;;1.43;;
2892;SDS011;1456;51.840;12.184;2023-06-26T21:54:22;1.90;;;1.77;;
2892;SDS011;1456;51.840;12.184;2023-06-26T21:56:48;2.90;;;2.80;;
2892;SDS011;1456;51.840;12.184;2023-06-26T21:59:14;1.60;;;1.60;;
2892;SDS011;1456;51.840;12.184;2023-06-26T22:01:40;1.50;;;1.50;;
2892;SDS011;1456;51.840;12.184;2023-06-26T22:04:05;2.00;;;1.90;;
2892;SDS011;1456;51.840;12.184;2023-06-26T22:06:34;2.30;;;2.20;;
2892;SDS011;1456;51.840;12.184;2023-06-26T22:09:00;2.40;;;1.90;;
2892;SDS011;1456;51.840;12.184;2023-06-26T22:11:27;2.00;;;2.00;;
2892;SDS011;1456;51.840;12.184;2023-06-26T22:13:53;2.20;;;2.20;;
2892;SDS011;1456;51.840;12.184;2023-06-26T22:16:20;1.90;;;1.90;;
2892;SDS011;1456;51.840;12.184;2023-06-26T22:18:47;2.57;;;2.57;;
2892;SDS011;1456;51.840;12.184;2023-06-26T22:21:13;1.90;;;1.90;;
2892;SDS011;1456;51.840;12.184;2023-06-26T22:23:39;2.43;;;2.43;;
2892;SDS011;1456;51.840;12.184;2023-06-26T22:26:04;2.20;;;2.20;;
2892;SDS011;1456;51.840;12.184;2023-06-26T22:28:30;2.80;;;2.70;;
2892;SDS011;1456;51.840;12.184;2023-06-26T22:30:56;2.80;;;2.80;;
2892;SDS011;1456;51.840;12.184;2023-06-26T22:33:21;2.83;;;2.83;;
2892;SDS011;1456;51.840;12.184;2023-06-26T22:35:47;2.90;;;2.90;;
2892;SDS011;1456;51.840;12.184;2023-06-26T22:38:15;3.60;;;3.50;;
2892;SDS011;1456;51.840;12.184;2023-06-26T22:40:40;4.07;;;3.80;;
2892;SDS011;1456;51.840;12.184;2023-06-26T22:43:06;3.00;;;3.00;;
2892;SDS011;1456;51.840;12.184;2023-06-26T22:45:32;4.03;;;3.83;;
2892;SDS011;1456;51.840;12.184;2023-06-26T22:47:59;3.73;;;3.63;;
2892;SDS011;1456;51.840;12.184;2023-06-26T22:50:25;3.87;;;3.87;;
2892;SDS011;1456;51.840;12.184;2023-06-26T22:52:52;3.70;;;3.70;;
2892;SDS011;1456;51.840;12.184;2023-06-26T22:55:20;3.40;;;3.40;;
2892;SDS011;1456;51.840;12.184;2023-06-26T22:57:47;3.27;;;3.27;;
2892;SDS011;1456;51.840;12.184;2023-06-26T23:00:13;3.80;;;3.80;;
2892;SDS011;1456;51.840;12.184;2023-06-26T23:02:39;4.43;;;4.23;;
2892;SDS011;1456;51.840;12.184;2023-06-26T23:05:05;3.53;;;3.53;;
2892;SDS011;1456;51.840;12.184;2023-06-26T23:07:32;3.97;;;3.97;;
2892;SDS011;1456;51.840;12.184;2023-06-26T23:10:03;5.80;;;4.40;;
2892;SDS011;1456;51.840;12.184;2023-06-26T23:12:31;4.27;;;4.27;;
2892;SDS011;1456;51.840;12.184;2023-06-26T23:14:59;4.10;;;4.00;;
2892;SDS011;1456;51.840;12.184;2023-06-26T23:17:27;3.90;;;3.90;;
2892;SDS011;1456;51.840;12.184;2023-06-26T23:19:53;4.37;;;4.27;;
2892;SDS011;1456;51.840;12.184;2023-06-26T23:22:21;4.30;;;4.30;;
2892;SDS011;1456;51.840;12.184;2023-06-26T23:24:48;4.53;;;4.53;;